Time;durP1;ratioP1;P1;durP2;ratioP2;P2;SDS_P1;SDS_P2;PMS_P1;PMS_P2;Temp;Humidity;BMP_temperature;BMP_pressure;BME280_temperature;BME280_humidity;BME280_pressure;Samples;Min_cycle;Max_cycle;Signal;HPM_P1;HPM_P2
2021/10/17 00:01:31;;;;;;;;;;;;;;;7.98;83.78;100614.55;1627333;87;21139;-80
2021/10/17 00:03:58;;;;;;;;;;;;;;;7.91;83.71;100611.13;1624194;87;20237;-80
2021/10/17 00:06:28;;;;;;;;;;;;;;;7.84;83.84;100614.39;1629421;87;21067;-81
2021/10/17 00:08:55;;;;;;;;;;;;;;;7.75;84.30;100619.91;1626181;87;20648;-80
2021/10/17 00:11:20;;;;;;;;;;;;;;;7.82;84.47;100617.14;1603480;87;20218;-80
2021/10/17 00:13:46;;;;;;;;;;;;;;;7.77;84.83;100612.75;1630559;86;20246;-80
2021/10/17 00:16:14;;;;;;;;;;;;;;;7.84;84.51;100615.20;1629232;86;20206;-81
2021/10/17 00:18:41;;;;;;;;;;;;;;;7.77;85.20;100615.38;1629243;86;21110;-80
2021/10/17 00:21:08;;;;;;;;;;;;;;;7.72;85.21;100614.45;1645478;85;20166;-80
2021/10/17 00:23:35;;;;;;;;;;;;;;;7.73;85.04;100610.02;1646124;86;20225;-80
2021/10/17 00:26:01;;;;;;;;;;;;;;;7.83;84.61;100614.88;1644899;86;20154;-80
2021/10/17 00:28:27;;;;;;;;;;;;;;;7.83;84.38;100610.08;1644688;86;20177;-80
2021/10/17 00:30:52;;;;;;;;;;;;;;;7.84;84.80;100609.95;1616802;87;21183;-80
2021/10/17 00:33:19;;;;;;;;;;;;;;;7.86;84.93;100605.42;1632329;86;20639;-80
2021/10/17 00:35:47;;;;;;;;;;;;;;;7.91;84.72;100607.67;1620585;87;20228;-80
2021/10/17 00:38:16;;;;;;;;;;;;;;;8.00;84.40;100600.33;1630368;86;20227;-80
2021/10/17 00:40:46;;;;;;;;;;;;;;;7.88;84.75;100600.86;1632823;86;20200;-80
2021/10/17 00:43:14;;;;;;;;;;;;;;;7.83;85.42;100601.73;1630952;86;21230;-79
2021/10/17 00:45:40;;;;;;;;;;;;;;;7.79;85.60;100603.42;1629121;86;20231;-80
2021/10/17 00:48:06;;;;;;;;;;;;;;;7.88;85.06;100603.48;1629961;86;20278;-80
2021/10/17 00:50:33;;;;;;;;;;;;;;;8.01;84.64;100602.47;1624754;86;20843;-80
2021/10/17 00:53:00;;;;;;;;;;;;;;;8.05;84.45;100604.71;1625029;86;20176;-80
2021/10/17 00:55:29;;;;;;;;;;;;;;;8.15;83.92;100599.99;1623098;87;21055;-79
2021/10/17 00:57:54;;;;;;;;;;;;;;;8.23;83.77;100601.48;1624825;86;20575;-79
2021/10/17 01:00:20;;;;;;;;;;;;;;;8.23;83.58;100604.97;1627075;86;20125;-80
2021/10/17 01:02:49;;;;;;;;;;;;;;;8.20;83.82;100602.60;1624258;86;20176;-80
2021/10/17 01:05:18;;;;;;;;;;;;;;;8.12;84.20;100597.13;1622929;87;20127;-80
2021/10/17 01:07:44;;;;;;;;;;;;;;;8.13;84.49;100593.55;1630673;86;21070;-79
2021/10/17 01:10:17;;;;;;;;;;;;;;;8.06;84.92;100596.33;1626276;86;20220;-78
2021/10/17 01:12:42;;;;;;;;;;;;;;;8.14;84.59;100588.65;1622922;86;20112;-79
2021/10/17 01:15:09;;;;;;;;;;;;;;;8.13;84.50;100583.02;1627383;86;20264;-78
2021/10/17 01:17:38;;;;;;;;;;;;;;;8.03;85.11;100590.87;1625653;87;20195;-79
2021/10/17 01:20:07;;;;;;;;;;;;;;;8.05;85.15;100588.11;1605266;87;20201;-78
2021/10/17 01:22:34;;;;;;;;;;;;;;;8.05;85.44;100588.11;1623410;86;21073;-78
2021/10/17 01:24:59;;;;;;;;;;;;;;;8.01;85.84;100583.56;1626973;86;20168;-78
2021/10/17 01:27:27;;;;;;;;;;;;;;;8.02;86.12;100579.16;1623836;86;20485;-79
2021/10/17 01:29:56;;;;;;;;;;;;;;;8.07;85.79;100575.66;1627886;86;20141;-81
2021/10/17 01:32:22;;;;;;;;;;;;;;;8.09;85.80;100574.57;1625991;86;20116;-79
2021/10/17 01:34:48;;;;;;;;;;;;;;;8.08;85.92;100577.33;1626862;87;20891;-79
2021/10/17 01:37:15;;;;;;;;;;;;;;;7.97;86.39;100570.34;1625778;86;20167;-80
2021/10/17 01:39:41;;;;;;;;;;;;;;;8.01;86.44;100570.91;1626025;86;20232;-81
2021/10/17 01:42:09;;;;;;;;;;;;;;;8.11;86.33;100571.81;1625204;86;20202;-81
2021/10/17 01:44:36;;;;;;;;;;;;;;;8.13;85.96;100565.92;1625139;86;21098;-81
2021/10/17 01:47:02;;;;;;;;;;;;;;;8.04;86.43;100568.02;1626347;87;20181;-81
2021/10/17 01:49:29;;;;;;;;;;;;;;;8.09;86.61;100565.83;1626972;86;20292;-81
2021/10/17 01:51:55;;;;;;;;;;;;;;;8.00;86.55;100568.77;1629498;87;20184;-81
2021/10/17 01:54:20;;;;;;;;;;;;;;;8.01;86.76;100565.64;1629466;86;20262;-81
2021/10/17 01:56:46;;;;;;;;;;;;;;;7.89;87.34;100563.09;1630964;86;21244;-81
2021/10/17 01:59:11;;;;;;;;;;;;;;;7.88;87.71;100558.78;1627395;87;20622;-81
2021/10/17 02:01:37;;;;;;;;;;;;;;;7.94;87.31;100559.22;1632710;87;20505;-81
2021/10/17 02:04:05;;;;;;;;;;;;;;;7.98;87.41;100556.70;1604794;87;20183;-81
2021/10/17 02:06:31;;;;;;;;;;;;;;;7.93;87.37;100561.03;1631229;86;20555;-80
2021/10/17 02:08:56;;;;;;;;;;;;;;;7.97;87.20;100553.70;1628089;86;21009;-79
2021/10/17 02:11:22;;;;;;;;;;;;;;;7.96;87.25;100554.20;1631070;86;20187;-80
2021/10/17 02:13:48;;;;;;;;;;;;;;;8.04;86.96;100554.87;1629214;86;20195;-80
2021/10/17 02:16:13;;;;;;;;;;;;;;;8.11;86.59;100550.77;1626688;86;20165;-79
2021/10/17 02:18:39;;;;;;;;;;;;;;;8.16;86.50;100551.20;1628534;86;20168;-80
2021/10/17 02:21:04;;;;;;;;;;;;;;;8.12;86.25;100562.94;1628913;86;21105;-80
2021/10/17 02:23:32;;;;;;;;;;;;;;;8.20;86.12;100553.08;1630536;86;20151;-81
2021/10/17 02:25:58;;;;;;;;;;;;;;;8.15;86.33;100546.89;1631689;86;20156;-80
2021/10/17 02:28:25;;;;;;;;;;;;;;;8.17;86.63;100559.45;1628918;86;20191;-80
2021/10/17 02:30:52;;;;;;;;;;;;;;;8.16;86.40;100552.52;1583341;87;20466;-80
2021/10/17 02:33:18;;;;;;;;;;;;;;;8.16;86.39;100546.43;1629148;86;21158;-80
2021/10/17 02:35:45;;;;;;;;;;;;;;;8.19;86.21;100548.30;1630593;86;20342;-80
2021/10/17 02:38:14;;;;;;;;;;;;;;;8.16;86.48;100551.69;1629722;86;20531;-79
2021/10/17 02:40:39;;;;;;;;;;;;;;;8.11;86.62;100548.14;1631140;86;20204;-79
2021/10/17 02:43:07;;;;;;;;;;;;;;;8.02;86.96;100551.55;1630467;86;20278;-79
2021/10/17 02:45:34;;;;;;;;;;;;;;;8.03;87.16;100550.09;1630583;86;21120;-79
2021/10/17 02:48:03;;;;;;;;;;;;;;;8.18;86.81;100551.89;1628265;86;20206;-79
2021/10/17 02:50:28;;;;;;;;;;;;;;;8.17;86.88;100553.34;1612355;86;20177;-79
2021/10/17 02:52:54;;;;;;;;;;;;;;;8.04;87.25;100545.66;1643802;85;20474;-81
2021/10/17 02:55:22;;;;;;;;;;;;;;;8.13;87.00;100554.09;1667530;84;20145;-80
2021/10/17 02:57:53;;;;;;;;;;;;;;;8.26;86.58;100550.78;1678578;83;21902;-79
2021/10/17 03:00:23;;;;;;;;;;;;;;;8.29;86.29;100550.16;1677374;85;20143;-79
2021/10/17 03:02:49;;;;;;;;;;;;;;;8.32;86.28;100552.52;1676195;85;20151;-79
2021/10/17 03:05:15;;;;;;;;;;;;;;;8.40;86.38;100554.00;1650710;85;21626;-79
2021/10/17 03:07:40;;;;;;;;;;;;;;;8.43;86.05;100553.73;1685311;83;20448;-79
2021/10/17 03:10:08;;;;;;;;;;;;;;;8.32;86.55;100552.52;1686227;83;21849;-80
2021/10/17 03:12:33;;;;;;;;;;;;;;;8.29;86.92;100556.73;1687724;83;20628;-80
2021/10/17 03:14:59;;;;;;;;;;;;;;;8.29;87.10;100548.34;1685982;83;20198;-80
2021/10/17 03:17:25;;;;;;;;;;;;;;;8.20;87.64;100553.93;1684664;83;20874;-79
2021/10/17 03:19:54;;;;;;;;;;;;;;;8.25;87.62;100550.41;1685265;83;20235;-80
2021/10/17 03:22:21;;;;;;;;;;;;;;;8.30;87.57;100546.53;1685024;85;21205;-79
2021/10/17 03:24:48;;;;;;;;;;;;;;;8.32;87.62;100545.94;1686153;83;20260;-80
2021/10/17 03:27:13;;;;;;;;;;;;;;;8.31;87.74;100548.21;1684321;85;20151;-80
2021/10/17 03:29:39;;;;;;;;;;;;;;;8.31;87.89;100541.63;1684708;83;20131;-80
2021/10/17 03:32:05;;;;;;;;;;;;;;;8.27;88.10;100547.16;1685440;83;20499;-80
2021/10/17 03:34:31;;;;;;;;;;;;;;;8.33;88.01;100541.02;1685587;83;21138;-80
2021/10/17 03:36:57;;;;;;;;;;;;;;;8.42;87.84;100540.22;1684440;85;20130;-79
2021/10/17 03:39:24;;;;;;;;;;;;;;;8.33;87.91;100547.12;1684946;83;20360;-80
2021/10/17 03:41:52;;;;;;;;;;;;;;;8.26;88.37;100544.20;1682791;83;20487;-80
2021/10/17 03:44:17;;;;;;;;;;;;;;;8.21;88.87;100550.80;1687981;83;20194;-80
2021/10/17 03:46:45;;;;;;;;;;;;;;;8.22;88.80;100549.36;1683970;84;21200;-80
2021/10/17 03:49:11;;;;;;;;;;;;;;;8.25;88.73;100553.05;1684721;83;20371;-80
2021/10/17 03:51:36;;;;;;;;;;;;;;;8.31;88.53;100556.11;1647570;85;20123;-79
2021/10/17 03:54:03;;;;;;;;;;;;;;;8.36;88.09;100553.91;1689825;83;20896;-79
2021/10/17 03:56:29;;;;;;;;;;;;;;;8.26;88.45;100554.72;1639689;86;20248;-79
2021/10/17 03:58:55;;;;;;;;;;;;;;;8.24;88.66;100553.17;1688125;83;21015;-80
2021/10/17 04:01:20;;;;;;;;;;;;;;;8.29;88.72;100563.31;1685675;83;20205;-81
2021/10/17 04:03:50;;;;;;;;;;;;;;;8.34;88.50;100550.58;1688216;83;20168;-79
2021/10/17 04:06:15;;;;;;;;;;;;;;;8.36;88.43;100552.13;1643910;85;20226;-80
2021/10/17 04:08:41;;;;;;;;;;;;;;;8.25;88.63;100556.99;1640508;85;20481;-81
2021/10/17 04:11:09;;;;;;;;;;;;;;;8.32;88.72;100552.52;1653610;83;21239;-80
2021/10/17 04:13:35;;;;;;;;;;;;;;;8.29;88.65;100545.72;1687919;83;20174;-81
2021/10/17 04:16:00;;;;;;;;;;;;;;;8.21;88.71;100551.63;1686845;83;20138;-80
2021/10/17 04:18:30;;;;;;;;;;;;;;;8.22;88.87;100550.67;1642122;85;20155;-80
2021/10/17 04:20:57;;;;;;;;;;;;;;;8.18;89.04;100551.89;1619400;85;20211;-81
2021/10/17 04:23:23;;;;;;;;;;;;;;;8.29;88.55;100550.97;1686458;83;21111;-80
2021/10/17 04:25:48;;;;;;;;;;;;;;;8.17;88.76;100554.19;1688197;83;20264;-80
2021/10/17 04:28:14;;;;;;;;;;;;;;;8.12;88.95;100552.91;1687213;84;20175;-81
2021/10/17 04:30:42;;;;;;;;;;;;;;;8.19;88.91;100549.63;1686933;83;20142;-81
2021/10/17 04:33:08;;;;;;;;;;;;;;;8.24;88.83;100544.79;1687768;83;20468;-80
2021/10/17 04:35:37;;;;;;;;;;;;;;;8.32;88.64;100544.13;1686945;83;21169;-80
2021/10/17 04:38:05;;;;;;;;;;;;;;;8.24;88.21;100542.16;1685799;83;20116;-80
2021/10/17 04:40:30;;;;;;;;;;;;;;;8.26;88.11;100541.57;1660813;83;20659;-80
2021/10/17 04:42:56;;;;;;;;;;;;;;;8.24;88.41;100543.48;1687820;83;20123;-80
2021/10/17 04:45:23;;;;;;;;;;;;;;;8.29;87.78;100543.08;1684052;83;20352;-78
2021/10/17 04:47:51;;;;;;;;;;;;;;;8.36;87.60;100548.64;1663840;83;21073;-78
2021/10/17 04:50:18;;;;;;;;;;;;;;;8.34;87.07;100543.52;1685470;83;20095;-79
2021/10/17 04:52:47;;;;;;;;;;;;;;;8.25;87.03;100554.85;1685079;83;20265;-79
2021/10/17 04:55:15;;;;;;;;;;;;;;;8.27;86.60;100541.90;1676843;83;20229;-79
2021/10/17 04:57:41;;;;;;;;;;;;;;;8.18;87.02;100545.80;1686550;83;20128;-78
2021/10/17 05:00:07;;;;;;;;;;;;;;;8.25;86.61;100543.02;1684062;84;21037;-78
2021/10/17 05:02:33;;;;;;;;;;;;;;;8.29;85.85;100542.26;1680422;83;21177;-79
2021/10/17 05:05:00;;;;;;;;;;;;;;;8.37;85.34;100540.61;1688593;83;20437;-79
2021/10/17 05:07:27;;;;;;;;;;;;;;;8.43;85.53;100532.22;1688228;83;20984;-80
2021/10/17 05:09:53;;;;;;;;;;;;;;;8.43;84.87;100541.89;1678795;83;20246;-80
2021/10/17 05:12:20;;;;;;;;;;;;;;;8.42;84.88;100538.91;1683971;83;21006;-80
2021/10/17 05:14:49;;;;;;;;;;;;;;;8.43;85.05;100534.86;1656366;85;20158;-80
2021/10/17 05:17:14;;;;;;;;;;;;;;;8.36;85.25;100540.75;1654864;85;20138;-79
2021/10/17 05:19:41;;;;;;;;;;;;;;;8.41;84.90;100547.78;1685947;83;20146;-80
2021/10/17 05:22:11;;;;;;;;;;;;;;;8.44;85.08;100546.23;1682882;83;20178;-80
2021/10/17 05:24:37;;;;;;;;;;;;;;;8.49;84.93;100541.89;1686169;83;20465;-80
2021/10/17 05:27:02;;;;;;;;;;;;;;;8.50;84.74;100548.34;1684939;85;20167;-80
2021/10/17 05:29:28;;;;;;;;;;;;;;;8.53;84.82;100551.17;1659206;85;20189;-80
2021/10/17 05:31:54;;;;;;;;;;;;;;;8.54;84.61;100552.34;1685227;85;20609;-80
2021/10/17 05:34:20;;;;;;;;;;;;;;;8.56;84.63;100552.22;1687020;83;20262;-80
2021/10/17 05:36:49;;;;;;;;;;;;;;;8.58;84.30;100559.52;1686833;83;21063;-80
2021/10/17 05:39:15;;;;;;;;;;;;;;;8.47;84.16;100555.19;1686930;83;20215;-79
2021/10/17 05:41:40;;;;;;;;;;;;;;;8.49;84.36;100562.45;1684370;83;20807;-80
2021/10/17 05:44:06;;;;;;;;;;;;;;;8.32;84.52;100561.23;1657634;85;21110;-80
2021/10/17 05:46:33;;;;;;;;;;;;;;;8.33;85.06;100569.95;1652762;85;20183;-80
2021/10/17 05:49:00;;;;;;;;;;;;;;;8.39;84.35;100572.06;1686831;83;21046;-80
2021/10/17 05:51:28;;;;;;;;;;;;;;;8.29;84.83;100571.20;1684367;83;20442;-79
2021/10/17 05:53:56;;;;;;;;;;;;;;;8.36;84.48;100573.18;1653664;85;20162;-80
2021/10/17 05:56:21;;;;;;;;;;;;;;;8.36;84.24;100578.91;1675493;84;20199;-81
2021/10/17 05:58:51;;;;;;;;;;;;;;;8.37;84.67;100574.00;1685155;83;20606;-80
2021/10/17 06:01:17;;;;;;;;;;;;;;;8.33;84.43;100571.27;1684859;83;20135;-80
2021/10/17 06:03:45;;;;;;;;;;;;;;;8.30;84.57;100573.70;1684937;83;20218;-80
2021/10/17 06:06:13;;;;;;;;;;;;;;;8.40;84.40;100567.16;1683151;83;20183;-79
2021/10/17 06:08:39;;;;;;;;;;;;;;;8.38;84.42;100580.94;1686188;83;20270;-80
2021/10/17 06:11:07;;;;;;;;;;;;;;;8.36;84.52;100576.27;1684666;84;20153;-80
2021/10/17 06:13:35;;;;;;;;;;;;;;;8.35;84.53;100576.77;1685608;83;21096;-80
2021/10/17 06:16:01;;;;;;;;;;;;;;;8.31;84.63;100579.79;1683981;83;20506;-80
2021/10/17 06:18:28;;;;;;;;;;;;;;;8.37;84.63;100579.27;1684924;83;20293;-80
2021/10/17 06:20:54;;;;;;;;;;;;;;;8.32;84.33;100581.47;1686572;83;20222;-80
2021/10/17 06:23:20;;;;;;;;;;;;;;;8.44;84.33;100579.13;1682699;83;20792;-80
2021/10/17 06:25:45;;;;;;;;;;;;;;;8.40;84.19;100579.00;1685804;83;21885;-80
2021/10/17 06:28:11;;;;;;;;;;;;;;;8.38;83.61;100575.68;1684491;85;20143;-82
2021/10/17 06:30:37;;;;;;;;;;;;;;;8.32;83.58;100590.19;1684646;83;21273;-80
2021/10/17 06:33:02;;;;;;;;;;;;;;;8.37;83.73;100581.89;1684685;83;20765;-80
2021/10/17 06:35:31;;;;;;;;;;;;;;;8.35;83.14;100581.20;1684870;84;20213;-79
2021/10/17 06:37:59;;;;;;;;;;;;;;;8.44;83.06;100585.72;1688934;82;20160;-80
2021/10/17 06:40:24;;;;;;;;;;;;;;;8.44;82.61;100588.34;1718721;82;20144;-80
2021/10/17 06:42:50;;;;;;;;;;;;;;;8.38;83.07;100592.30;1718183;82;20199;-81
2021/10/17 06:45:16;;;;;;;;;;;;;;;8.47;83.00;100588.08;1719663;82;20472;-81
2021/10/17 06:47:41;;;;;;;;;;;;;;;8.54;82.54;100583.11;1717853;82;20395;-81
2021/10/17 06:50:09;;;;;;;;;;;;;;;8.63;81.72;100581.83;1718214;82;21264;-82
2021/10/17 06:52:34;;;;;;;;;;;;;;;8.55;81.31;100579.53;1668609;83;20176;-80
2021/10/17 06:55:00;;;;;;;;;;;;;;;8.61;81.67;100582.45;1719174;82;20617;-79
2021/10/17 06:57:25;;;;;;;;;;;;;;;8.73;80.82;100584.98;1678470;84;20489;-79
2021/10/17 06:59:51;;;;;;;;;;;;;;;8.86;80.21;100580.32;1679883;84;20197;-80
2021/10/17 07:02:17;;;;;;;;;;;;;;;8.69;80.71;100583.60;1711660;83;21980;-80
2021/10/17 07:04:42;;;;;;;;;;;;;;;8.68;80.79;100585.87;1698040;82;20193;-79
2021/10/17 07:07:08;;;;;;;;;;;;;;;8.66;81.24;100592.59;1690844;83;20555;-80
2021/10/17 07:09:34;;;;;;;;;;;;;;;8.88;79.93;100590.23;1716942;82;20411;-80
2021/10/17 07:11:59;;;;;;;;;;;;;;;8.86;80.13;100593.49;1715535;82;20152;-80
2021/10/17 07:14:25;;;;;;;;;;;;;;;8.97;80.10;100592.05;1714006;82;21989;-79
2021/10/17 07:16:51;;;;;;;;;;;;;;;9.04;80.03;100596.30;1713500;82;20523;-79
2021/10/17 07:19:18;;;;;;;;;;;;;;;9.13;79.56;100595.97;1679249;84;20144;-79
2021/10/17 07:21:44;;;;;;;;;;;;;;;9.07;79.51;100593.88;1713265;82;20145;-79
2021/10/17 07:24:09;;;;;;;;;;;;;;;9.12;79.73;100598.25;1698199;83;20154;-80
2021/10/17 07:26:38;;;;;;;;;;;;;;;9.22;79.98;100603.06;1670342;84;21236;-80
2021/10/17 07:29:05;;;;;;;;;;;;;;;9.31;79.58;100603.56;1688835;83;20488;-83
2021/10/17 07:31:33;;;;;;;;;;;;;;;9.26;79.05;100603.16;1716924;82;20204;-81
2021/10/17 07:34:03;;;;;;;;;;;;;;;9.23;79.00;100604.74;1696350;83;20889;-83
2021/10/17 07:36:33;;;;;;;;;;;;;;;9.10;79.35;100610.73;1702290;83;20217;-82
2021/10/17 07:39:00;;;;;;;;;;;;;;;9.11;79.73;100611.92;1698008;83;21070;-82
2021/10/17 07:41:26;;;;;;;;;;;;;;;9.17;79.69;100618.46;1697848;83;20138;-83
2021/10/17 07:43:54;;;;;;;;;;;;;;;9.17;79.50;100610.55;1698519;83;20269;-82
2021/10/17 07:46:20;;;;;;;;;;;;;;;9.18;79.76;100604.30;1695740;83;20400;-82
2021/10/17 07:48:45;;;;;;;;;;;;;;;9.25;79.89;100612.52;1698312;83;20173;-81
2021/10/17 07:51:11;;;;;;;;;;;;;;;9.28;79.97;100613.06;1671691;83;22759;-83
2021/10/17 07:53:36;;;;;;;;;;;;;;;9.33;79.09;100601.62;1701651;83;20715;-82
2021/10/17 07:56:02;;;;;;;;;;;;;;;9.37;79.53;100607.94;1700218;83;20103;-82
2021/10/17 07:58:28;;;;;;;;;;;;;;;9.35;78.92;100606.75;1698712;83;20173;-80
2021/10/17 08:00:53;;;;;;;;;;;;;;;9.43;79.02;100611.34;1699648;83;20188;-81
2021/10/17 08:03:21;;;;;;;;;;;;;;;9.41;78.91;100609.34;1697502;83;21021;-81
2021/10/17 08:05:48;;;;;;;;;;;;;;;9.40;79.39;100612.47;1698918;83;20201;-82
2021/10/17 08:08:16;;;;;;;;;;;;;;;9.48;79.48;100614.42;1673024;84;20843;-82
2021/10/17 08:10:47;;;;;;;;;;;;;;;9.50;79.10;100607.20;1699241;83;20148;-83
2021/10/17 08:13:13;;;;;;;;;;;;;;;9.50;79.09;100612.47;1696775;83;20342;-85
2021/10/17 08:15:39;;;;;;;;;;;;;;;9.59;78.69;100615.59;1698481;83;21155;-84
2021/10/17 08:18:05;;;;;;;;;;;;;;;9.63;78.89;100611.72;1698586;83;20171;-81
2021/10/17 08:20:31;;;;;;;;;;;;;;;9.66;78.62;100615.41;1699235;83;20229;-81
2021/10/17 08:22:56;;;;;;;;;;;;;;;9.68;78.41;100612.63;1696911;83;20754;-81
2021/10/17 08:25:22;;;;;;;;;;;;;;;9.69;78.50;100615.12;1700383;83;20135;-81
2021/10/17 08:27:47;;;;;;;;;;;;;;;9.76;78.38;100613.25;1698718;83;21850;-81
2021/10/17 08:30:13;;;;;;;;;;;;;;;9.85;78.15;100616.34;1697805;83;20155;-84
2021/10/17 08:32:40;;;;;;;;;;;;;;;9.83;77.60;100616.97;1698923;83;20610;-83
2021/10/17 08:35:08;;;;;;;;;;;;;;;9.79;77.22;100612.94;1697536;83;20143;-82
2021/10/17 08:37:37;;;;;;;;;;;;;;;9.88;77.37;100613.42;1697693;83;20186;-81
2021/10/17 08:40:05;;;;;;;;;;;;;;;9.96;76.99;100611.41;1697510;83;21086;-82
2021/10/17 08:42:33;;;;;;;;;;;;;;;9.99;76.35;100615.08;1696692;83;20200;-81
2021/10/17 08:45:00;;;;;;;;;;;;;;;9.85;76.97;100617.66;1698389;83;20179;-82
2021/10/17 08:47:27;;;;;;;;;;;;;;;9.72;77.32;100613.99;1698245;84;20169;-81
2021/10/17 08:49:53;;;;;;;;;;;;;;;9.80;76.70;100622.53;1697601;83;20126;-81
2021/10/17 08:52:22;;;;;;;;;;;;;;;9.88;77.02;100620.02;1691472;83;21046;-81
2021/10/17 08:54:47;;;;;;;;;;;;;;;9.94;76.35;100618.14;1690554;83;20414;-81
2021/10/17 08:57:15;;;;;;;;;;;;;;;9.95;76.46;100626.91;1687550;83;20159;-82
2021/10/17 08:59:51;;;;;;;;;;;;;;;9.95;76.15;100618.50;1688537;83;20489;-82
2021/10/17 09:02:20;;;;;;;;;;;;;;;9.90;76.48;100623.37;1691049;83;20172;-81
2021/10/17 09:05:07;;;;;;;;;;;;;;;9.88;76.12;100622.66;1690155;83;21932;-82
2021/10/17 09:07:35;;;;;;;;;;;;;;;9.84;76.86;100622.61;1689460;83;20264;-82
2021/10/17 09:10:13;;;;;;;;;;;;;;;9.90;76.56;100616.77;1688636;83;20158;-83
2021/10/17 09:12:39;;;;;;;;;;;;;;;9.92;77.06;100622.73;1684517;83;20595;-83
2021/10/17 09:15:27;;;;;;;;;;;;;;;9.92;76.34;100621.91;1689576;83;20188;-84
2021/10/17 09:18:21;;;;;;;;;;;;;;;9.87;77.20;100622.33;1662007;85;20115;-82
2021/10/17 09:20:53;;;;;;;;;;;;;;;9.88;77.61;100620.87;1673770;84;20197;-86
2021/10/17 09:23:26;;;;;;;;;;;;;;;9.83;77.73;100624.89;1673468;84;20128;-86
2021/10/17 09:25:55;;;;;;;;;;;;;;;9.95;77.76;100627.73;1671430;84;20814;-86
2021/10/17 09:28:30;;;;;;;;;;;;;;;9.93;77.56;100629.69;1670907;84;20161;-83
2021/10/17 09:31:10;;;;;;;;;;;;;;;9.97;77.48;100628.41;1675806;84;21187;-84
2021/10/17 09:33:50;;;;;;;;;;;;;;;9.98;77.61;100631.41;1686976;83;20180;-83
2021/10/17 09:36:27;;;;;;;;;;;;;;;9.89;76.99;100633.56;1677549;83;20556;-83
2021/10/17 09:39:03;;;;;;;;;;;;;;;9.82;77.66;100625.84;1669837;83;20168;-82
2021/10/17 09:41:31;;;;;;;;;;;;;;;9.91;77.43;100628.14;1689309;83;20566;-80
2021/10/17 09:43:57;;;;;;;;;;;;;;;9.94;77.79;100631.33;1689121;83;20124;-83
2021/10/17 09:46:27;;;;;;;;;;;;;;;10.01;77.33;100630.30;1658890;85;20486;-82
2021/10/17 09:48:55;;;;;;;;;;;;;;;9.98;77.62;100623.48;1687619;83;20164;-82
2021/10/17 09:51:28;;;;;;;;;;;;;;;10.08;77.75;100630.56;1683754;83;20175;-81
2021/10/17 09:53:56;;;;;;;;;;;;;;;10.14;77.73;100623.41;1685968;83;20200;-82
2021/10/17 09:56:37;;;;;;;;;;;;;;;10.18;77.21;100623.47;1668078;83;21148;-83
2021/10/17 09:59:12;;;;;;;;;;;;;;;9.99;77.75;100617.25;1678920;83;21117;-82
2021/10/17 10:01:38;;;;;;;;;;;;;;;10.09;77.62;100615.09;1683962;83;20187;-83
2021/10/17 10:04:08;;;;;;;;;;;;;;;9.95;77.88;100625.09;1683526;83;20816;-82
2021/10/17 10:06:35;;;;;;;;;;;;;;;10.09;77.68;100619.05;1684562;83;20203;-84
2021/10/17 10:09:04;;;;;;;;;;;;;;;10.04;77.89;100616.83;1684592;82;21074;-83
2021/10/17 10:11:31;;;;;;;;;;;;;;;10.05;77.09;100618.01;1649306;85;20511;-83
2021/10/17 10:14:05;;;;;;;;;;;;;;;10.01;77.72;100618.43;1691809;83;20179;-82
2021/10/17 10:16:31;;;;;;;;;;;;;;;10.09;77.77;100615.09;1687803;83;20153;-82
2021/10/17 10:18:58;;;;;;;;;;;;;;;10.16;77.55;100623.61;1688047;83;20251;-82
2021/10/17 10:21:24;;;;;;;;;;;;;;;10.17;77.19;100618.66;1692045;83;21143;-82
2021/10/17 10:23:52;;;;;;;;;;;;;;;10.22;76.63;100623.05;1689515;83;20188;-82
2021/10/17 10:26:22;;;;;;;;;;;;;;;10.22;76.27;100628.80;1669673;83;20189;-83
2021/10/17 10:28:48;;;;;;;;;;;;;;;10.23;75.94;100627.83;1670698;83;20643;-81
2021/10/17 10:31:52;;;;;;;;;;;;;;;10.05;75.94;100627.70;1670924;84;20971;-82
2021/10/17 10:34:28;;;;;;;;;;;;;;;10.08;76.21;100629.24;1688526;83;20274;-82
2021/10/17 10:36:56;;;;;;;;;;;;;;;10.06;75.93;100627.56;1692260;83;20498;-81
2021/10/17 10:39:24;;;;;;;;;;;;;;;10.03;76.69;100627.84;1670073;83;32905;-82
2021/10/17 10:41:58;;;;;;;;;;;;;;;10.16;76.29;100621.44;1690046;83;20734;-83
2021/10/17 10:44:26;;;;;;;;;;;;;;;10.15;76.71;100617.16;1686489;83;20173;-80
2021/10/17 10:46:54;;;;;;;;;;;;;;;10.14;75.87;100613.67;1693159;83;22398;-81
2021/10/17 10:49:46;;;;;;;;;;;;;;;10.21;75.81;100620.55;1686408;83;20289;-82
2021/10/17 10:52:34;;;;;;;;;;;;;;;10.23;75.62;100615.45;1697379;82;20159;-83
2021/10/17 10:55:02;;;;;;;;;;;;;;;10.27;75.31;100606.78;1713701;82;20201;-82
2021/10/17 10:57:29;;;;;;;;;;;;;;;10.37;75.30;100611.56;1717749;82;21231;-81
2021/10/17 11:00:11;;;;;;;;;;;;;;;10.29;74.77;100606.14;1715979;82;21192;-84
2021/10/17 11:02:38;;;;;;;;;;;;;;;10.38;74.73;100605.32;1677886;82;20787;-86
2021/10/17 11:05:16;;;;;;;;;;;;;;;10.57;74.31;100606.23;1717162;82;20671;-85
2021/10/17 11:07:46;;;;;;;;;;;;;;;10.59;73.85;100606.41;1720292;82;20191;-83
2021/10/17 11:10:30;;;;;;;;;;;;;;;10.76;73.13;100600.84;1716773;82;20180;-83
2021/10/17 11:12:59;;;;;;;;;;;;;;;10.86;72.05;100599.97;1720260;82;20175;-84
2021/10/17 11:15:27;;;;;;;;;;;;;;;10.74;71.11;100597.53;1717218;82;20502;-87
2021/10/17 11:17:58;;;;;;;;;;;;;;;10.71;71.84;100591.72;1715985;82;20133;-80
2021/10/17 11:20:26;;;;;;;;;;;;;;;10.57;71.93;100600.95;1718384;82;20979;-82
2021/10/17 11:22:54;;;;;;;;;;;;;;;10.62;72.27;100600.02;1719380;82;20195;-84
2021/10/17 11:25:20;;;;;;;;;;;;;;;10.54;71.38;100595.95;1718724;82;20156;-85
2021/10/17 11:27:48;;;;;;;;;;;;;;;10.47;71.48;100604.10;1719059;82;20140;-84
2021/10/17 11:30:33;;;;;;;;;;;;;;;10.28;71.72;100592.59;1717203;82;20208;-86
2021/10/17 11:33:01;;;;;;;;;;;;;;;10.45;71.70;100588.91;1718971;82;20662;-85
2021/10/17 11:35:37;;;;;;;;;;;;;;;10.48;71.48;100591.25;1721595;82;20946;-83
2021/10/17 11:38:05;;;;;;;;;;;;;;;10.37;72.14;100589.13;1715267;83;20132;-87
2021/10/17 11:40:34;;;;;;;;;;;;;;;10.53;72.26;100581.08;1722362;82;20723;-80
2021/10/17 11:43:02;;;;;;;;;;;;;;;10.52;72.73;100586.03;1701412;83;20078;-80
2021/10/17 11:45:30;;;;;;;;;;;;;;;10.65;72.92;100580.42;1723177;78;20181;-78
2021/10/17 11:47:57;;;;;;;;;;;;;;;10.72;72.84;100578.36;1723240;78;20139;-80
2021/10/17 11:50:26;;;;;;;;;;;;;;;10.69;72.61;100572.52;1722069;80;21072;-81
2021/10/17 11:52:54;;;;;;;;;;;;;;;10.59;72.58;100570.76;1685724;82;20139;-80
2021/10/17 11:55:34;;;;;;;;;;;;;;;10.60;72.99;100572.93;1683272;81;20575;-80
2021/10/17 11:58:01;;;;;;;;;;;;;;;10.57;72.99;100574.54;1667554;83;20202;-79
2021/10/17 12:00:28;;;;;;;;;;;;;;;10.75;72.70;100578.07;1677617;84;20149;-83
2021/10/17 12:02:56;;;;;;;;;;;;;;;10.77;72.29;100569.50;1679390;83;22056;-82
2021/10/17 12:05:25;;;;;;;;;;;;;;;10.84;71.54;100575.02;1686136;84;20161;-79
2021/10/17 12:07:54;;;;;;;;;;;;;;;10.74;71.60;100571.12;1686685;83;20565;-81
2021/10/17 12:10:19;;;;;;;;;;;;;;;10.63;72.67;100573.95;1687088;83;20205;-83
2021/10/17 12:12:44;;;;;;;;;;;;;;;10.67;71.94;100568.70;1689171;83;20162;-81
2021/10/17 12:15:13;;;;;;;;;;;;;;;10.53;72.33;100575.80;1686760;83;21258;-81
2021/10/17 12:17:41;;;;;;;;;;;;;;;10.49;72.31;100581.05;1684340;83;20676;-81
2021/10/17 12:20:14;;;;;;;;;;;;;;;10.36;72.27;100585.31;1684969;83;20352;-85
2021/10/17 12:22:47;;;;;;;;;;;;;;;10.35;72.63;100576.56;1686095;83;20143;-81
2021/10/17 12:25:15;;;;;;;;;;;;;;;10.33;72.53;100572.39;1685688;83;20236;-81
2021/10/17 12:27:50;;;;;;;;;;;;;;;10.18;73.06;100573.33;1685135;84;21083;-88
2021/10/17 12:30:30;;;;;;;;;;;;;;;10.19;73.40;100569.23;1688068;83;20192;-84
2021/10/17 12:33:00;;;;;;;;;;;;;;;10.17;73.42;100560.60;1664944;83;20581;-82
2021/10/17 12:35:39;;;;;;;;;;;;;;;10.19;73.65;100561.31;1686000;83;20197;-84
2021/10/17 12:38:07;;;;;;;;;;;;;;;10.29;73.27;100561.27;1684592;85;20170;-80
2021/10/17 12:40:34;;;;;;;;;;;;;;;10.27;73.79;100557.95;1686895;83;21095;-82
2021/10/17 12:43:03;;;;;;;;;;;;;;;10.40;73.80;100557.66;1686580;84;20229;-84
2021/10/17 12:45:31;;;;;;;;;;;;;;;10.47;73.65;100547.33;1685275;83;20197;-88
2021/10/17 12:47:57;;;;;;;;;;;;;;;10.50;73.66;100545.72;1686480;83;20111;-88
2021/10/17 12:50:25;;;;;;;;;;;;;;;10.42;73.12;100538.53;1686664;83;20330;-82